createdAt,value
2022-09-23T00:01:01.702Z,3.90
2022-09-23T00:06:12.521Z,4.00
2022-09-23T00:11:19.609Z,4.10
2022-09-23T00:16:26.410Z,5.30
2022-09-23T00:21:29.570Z,4.70
2022-09-23T00:26:32.255Z,4.70
2022-09-23T00:31:34.989Z,4.80
2022-09-23T00:36:38.680Z,4.60
2022-09-23T00:41:41.654Z,4.60
2022-09-23T00:46:44.513Z,4.10
2022-09-23T00:51:54.618Z,4.40
2022-09-23T00:56:59.788Z,4.00
2022-09-23T01:02:03.803Z,4.50
2022-09-23T01:07:09.638Z,4.60
2022-09-23T01:12:22.817Z,3.80
2022-09-23T01:17:47.612Z,3.80
2022-09-23T01:23:09.196Z,4.30
2022-09-23T01:28:50.884Z,4.60
2022-09-23T01:34:04.813Z,4.20
2022-09-23T01:39:24.290Z,4.30
2022-09-23T01:44:55.029Z,4.90
2022-09-23T01:50:29.361Z,4.80
2022-09-23T01:55:36.928Z,4.40
2022-09-23T02:00:50.329Z,5.50
2022-09-23T02:06:01.708Z,6.40
2022-09-23T02:11:10.665Z,7.50
2022-09-23T02:16:39.996Z,7.00
2022-09-23T02:21:52.684Z,7.50
2022-09-23T02:27:07.978Z,7.50
2022-09-23T02:32:15.902Z,7.80
2022-09-23T02:37:49.589Z,6.40
2022-09-23T02:43:28.145Z,7.00
2022-09-23T02:48:36.308Z,6.10
2022-09-23T02:53:40.344Z,6.50
2022-09-23T02:58:43.928Z,6.60
2022-09-23T03:03:53.868Z,6.30
2022-09-23T03:09:08.483Z,6.80
2022-09-23T03:14:34.842Z,6.80
2022-09-23T03:19:50.741Z,6.40
2022-09-23T03:24:56.097Z,6.20
2022-09-23T03:29:59.641Z,7.40
2022-09-23T03:35:05.792Z,6.40
2022-09-23T03:40:27.278Z,7.30
2022-09-23T03:45:34.251Z,6.30
2022-09-23T03:50:39.566Z,6.90
2022-09-23T03:55:42.301Z,8.30
2022-09-23T04:00:45.345Z,7.20
2022-09-23T04:05:48.600Z,6.60
2022-09-23T04:10:54.756Z,6.00
2022-09-23T04:15:58.147Z,6.90
2022-09-23T04:21:01.413Z,6.50
2022-09-23T04:26:05.782Z,8.30
2022-09-23T04:31:10.054Z,11.20
2022-09-23T04:36:13.231Z,9.00
2022-09-23T04:41:17.650Z,8.60
2022-09-23T04:46:21.055Z,7.60
2022-09-23T04:51:26.062Z,7.00
2022-09-23T04:56:32.691Z,8.00
2022-09-23T05:01:36.667Z,9.00
2022-09-23T05:06:39.772Z,8.00
2022-09-23T05:11:43.584Z,10.20
2022-09-23T05:16:46.327Z,8.60
2022-09-23T05:21:49.070Z,8.50
2022-09-23T05:26:55.985Z,10.10
2022-09-23T05:37:01.507Z,13.90
2022-09-23T05:42:05.017Z,13.10
2022-09-23T05:47:07.822Z,13.00
2022-09-23T05:52:10.613Z,10.80
2022-09-23T05:57:13.441Z,12.10
2022-09-23T06:02:16.310Z,13.90
2022-09-23T06:07:19.822Z,11.20
2022-09-23T06:12:23.119Z,9.70
2022-09-23T06:17:25.953Z,8.20
2022-09-23T06:22:28.765Z,7.90
2022-09-23T06:27:31.847Z,8.40
2022-09-23T06:32:35.206Z,7.80
2022-09-23T06:37:37.978Z,7.50
2022-09-23T06:42:47.981Z,6.00
2022-09-23T06:47:58.854Z,5.70
2022-09-23T06:53:04.929Z,5.10
2022-09-23T06:58:09.307Z,4.70
2022-09-23T07:03:12.495Z,4.80
2022-09-23T07:08:16.999Z,4.30
2022-09-23T07:13:20.978Z,4.00
2022-09-23T07:18:25.589Z,4.20
2022-09-23T07:23:28.542Z,4.10
2022-09-23T07:28:32.405Z,4.00
2022-09-23T07:33:43.800Z,4.60
2022-09-23T07:38:47.693Z,4.30
2022-09-23T07:43:55.749Z,4.50
2022-09-23T07:49:06.080Z,4.20
2022-09-23T07:54:13.105Z,4.00
2022-09-23T07:59:18.392Z,3.60
2022-09-23T08:04:25.032Z,4.00
2022-09-23T08:09:32.236Z,5.00
2022-09-23T08:14:35.459Z,4.50
2022-09-23T08:19:38.299Z,4.70
2022-09-23T08:24:41.281Z,3.50
2022-09-23T08:29:44.962Z,4.20
2022-09-23T08:34:47.818Z,3.50
2022-09-23T08:39:50.613Z,3.00
2022-09-23T08:44:58.974Z,3.90
2022-09-23T08:50:09.906Z,3.70
2022-09-23T08:55:17.101Z,2.30
2022-09-23T09:00:26.139Z,2.50
2022-09-23T09:05:30.081Z,2.20
2022-09-23T09:16:11.561Z,2.40
2022-09-23T09:21:16.307Z,2.30
2022-09-23T09:26:23.806Z,2.70
2022-09-23T09:31:36.281Z,2.20
2022-09-23T09:36:51.548Z,2.50
2022-09-23T09:41:58.643Z,2.80
2022-09-23T09:47:12.426Z,2.80
2022-09-23T09:52:30.863Z,2.50
2022-09-23T09:57:42.826Z,2.40
2022-09-23T10:02:47.491Z,2.40
2022-09-23T10:07:50.239Z,2.30
2022-09-23T10:12:53.201Z,2.20
2022-09-23T10:17:56.823Z,1.80
2022-09-23T10:23:07.490Z,1.80
2022-09-23T10:28:38.554Z,1.70
2022-09-23T10:33:48.254Z,1.60
2022-09-23T10:39:20.451Z,1.80
2022-09-23T10:44:56.606Z,1.20
2022-09-23T10:50:14.755Z,1.30
2022-09-23T10:55:29.848Z,1.20
2022-09-23T11:00:37.937Z,1.30
2022-09-23T11:05:56.338Z,1.30
2022-09-23T11:11:22.459Z,1.20
2022-09-23T11:17:05.906Z,1.10
2022-09-23T11:22:46.269Z,1.20
2022-09-23T11:28:10.613Z,0.90
2022-09-23T11:33:27.988Z,1.50
2022-09-23T11:38:48.681Z,1.20
2022-09-23T11:44:28.515Z,1.20
2022-09-23T11:49:39.394Z,1.20
2022-09-23T11:54:54.503Z,1.20
2022-09-23T12:00:04.980Z,1.10
2022-09-23T12:05:16.730Z,1.50
2022-09-23T12:10:22.213Z,2.20
2022-09-23T12:15:50.647Z,2.10
2022-09-23T12:21:27.153Z,2.90
2022-09-23T12:26:35.850Z,3.00
2022-09-23T12:31:42.068Z,2.40
2022-09-23T12:36:47.319Z,1.70
2022-09-23T12:41:58.499Z,1.80
2022-09-23T12:47:25.732Z,1.70
2022-09-23T12:52:31.980Z,1.40
2022-09-23T12:57:34.895Z,1.40
2022-09-23T13:02:47.037Z,3.60
2022-09-23T13:07:51.098Z,4.40
2022-09-23T13:12:55.902Z,3.00
2022-09-23T13:18:20.581Z,2.10
2022-09-23T13:23:27.332Z,1.60
2022-09-23T13:28:30.180Z,1.60
2022-09-23T13:33:44.309Z,1.50
2022-09-23T13:38:48.419Z,1.10
2022-09-23T13:43:56.886Z,1.70
2022-09-23T13:48:59.800Z,1.40
2022-09-23T13:54:05.275Z,1.60
2022-09-23T13:59:28.454Z,1.60
2022-09-23T14:04:31.391Z,1.60
2022-09-23T14:09:36.053Z,1.50
2022-09-23T14:14:42.371Z,1.60
2022-09-23T14:19:46.476Z,1.60
2022-09-23T14:24:49.912Z,1.50
2022-09-23T14:29:53.377Z,2.10
2022-09-23T14:35:03.768Z,1.60
2022-09-23T14:40:13.456Z,2.00
2022-09-23T14:45:26.206Z,1.40
2022-09-23T14:50:39.363Z,1.80
2022-09-23T14:55:42.951Z,2.50
2022-09-23T15:00:57.105Z,3.40
2022-09-23T15:06:09.071Z,2.80
2022-09-23T15:11:12.209Z,2.00
2022-09-23T15:16:16.844Z,2.50
2022-09-23T15:21:22.002Z,2.50
2022-09-23T15:26:39.370Z,2.30
2022-09-23T15:31:42.935Z,1.80
2022-09-23T15:36:46.084Z,3.00
2022-09-23T15:41:49.382Z,3.40
2022-09-23T15:47:00.017Z,2.60
2022-09-23T15:52:05.234Z,12.00
2022-09-23T15:57:08.031Z,9.20
2022-09-23T16:02:23.272Z,9.40
2022-09-23T16:07:26.154Z,7.60
2022-09-23T16:12:29.352Z,7.20
2022-09-23T16:17:32.361Z,10.10
2022-09-23T16:22:35.587Z,9.60
2022-09-23T16:27:39.902Z,11.20
2022-09-23T16:32:43.453Z,13.00
2022-09-23T16:37:47.853Z,14.40
2022-09-23T16:42:52.532Z,21.40
2022-09-23T16:47:55.286Z,28.90
2022-09-23T16:52:58.249Z,23.30
2022-09-23T16:58:01.934Z,20.00
2022-09-23T17:03:24.193Z,17.80
2022-09-23T17:08:26.995Z,10.50
2022-09-23T17:13:31.256Z,12.60
2022-09-23T17:18:34.652Z,10.70
2022-09-23T17:23:38.417Z,7.10
2022-09-23T17:28:41.357Z,6.50
2022-09-23T17:33:44.337Z,6.90
2022-09-23T17:38:48.591Z,8.00
2022-09-23T17:43:57.161Z,6.10
2022-09-23T17:49:00.062Z,5.70
2022-09-23T17:54:03.044Z,6.20
2022-09-23T17:59:06.763Z,5.40
2022-09-23T18:04:12.199Z,5.30
2022-09-23T18:09:15.497Z,5.20
2022-09-23T18:14:21.224Z,5.10
2022-09-23T18:19:25.142Z,4.40
2022-09-23T18:24:32.764Z,4.30
2022-09-23T18:29:37.125Z,5.50
2022-09-23T18:34:43.657Z,5.10
2022-09-23T18:39:49.166Z,5.20
2022-09-23T18:44:56.440Z,5.90
2022-09-23T18:50:34.469Z,5.90
2022-09-23T18:55:37.347Z,8.20
2022-09-23T19:00:42.739Z,8.40
2022-09-23T19:05:46.322Z,7.40
2022-09-23T19:10:55.938Z,7.00
2022-09-23T19:16:17.299Z,6.50
2022-09-23T19:21:22.437Z,6.40
2022-09-23T19:26:32.333Z,6.30
2022-09-23T19:31:40.823Z,6.90
2022-09-23T19:36:45.950Z,7.00
2022-09-23T19:41:49.984Z,7.90
2022-09-23T19:46:56.313Z,7.70
2022-09-23T19:52:02.094Z,8.80
2022-09-23T19:57:04.897Z,7.10
2022-09-23T20:02:12.359Z,6.30
2022-09-23T20:07:15.769Z,6.60
2022-09-23T20:12:18.518Z,6.70
2022-09-23T20:17:21.532Z,9.80
2022-09-23T20:22:25.410Z,8.80
2022-09-23T20:27:32.633Z,16.50
2022-09-23T20:32:40.758Z,9.50
2022-09-23T20:37:46.865Z,7.60
2022-09-23T20:42:50.115Z,8.40
2022-09-23T20:47:52.831Z,13.60
2022-09-23T20:52:56.471Z,18.40
2022-09-23T20:57:59.949Z,17.50
2022-09-23T21:03:02.770Z,20.90
2022-09-23T21:08:05.592Z,11.80
2022-09-23T21:13:08.292Z,8.60
2022-09-23T21:18:14.602Z,9.30
2022-09-23T21:23:21.170Z,9.50
2022-09-23T21:28:24.738Z,7.20
2022-09-23T21:33:28.919Z,5.20
2022-09-23T21:38:37.669Z,5.00
2022-09-23T21:43:40.888Z,4.80
2022-09-23T21:48:43.755Z,6.10
2022-09-23T21:53:47.287Z,4.80
2022-09-23T21:58:52.255Z,4.60
2022-09-23T22:03:58.103Z,5.30
2022-09-23T22:09:04.342Z,5.30
2022-09-23T22:14:09.698Z,5.40
2022-09-23T22:19:13.719Z,5.20
2022-09-23T22:24:16.745Z,5.20
2022-09-23T22:29:38.610Z,5.40
2022-09-23T22:34:51.983Z,4.60
2022-09-23T22:39:55.329Z,4.90
2022-09-23T22:44:58.162Z,6.10
2022-09-23T22:50:01.731Z,5.30
2022-09-23T22:55:06.812Z,5.30
2022-09-23T23:00:11.569Z,5.20
2022-09-23T23:05:14.688Z,5.30
2022-09-23T23:10:17.577Z,5.80
2022-09-23T23:15:20.746Z,5.40
2022-09-23T23:20:23.787Z,5.50
2022-09-23T23:25:26.490Z,5.90
2022-09-23T23:30:29.274Z,5.70
2022-09-23T23:35:31.988Z,5.80
2022-09-23T23:40:37.746Z,5.80
2022-09-23T23:45:40.518Z,6.10
2022-09-23T23:50:56.454Z,5.70
2022-09-23T23:56:14.629Z,4.60
